Time;durP1;ratioP1;P1;durP2;ratioP2;P2;SDS_P1;SDS_P2;PMS_P1;PMS_P2;Temp;Humidity;BMP_temperature;BMP_pressure;BME280_temperature;BME280_humidity;BME280_pressure;Samples;Min_cycle;Max_cycle;Signal;HPM_P1;HPM_P2
2021/04/02 00:00:14;;;;;;;13.33;7.20;;;8.80;99.90;;;;;;5042708;28;20595;-61
2021/04/02 00:02:40;;;;;;;14.82;7.20;;;8.80;99.70;;;;;;5040124;28;20040;-60
2021/04/02 00:05:07;;;;;;;16.07;9.00;;;8.70;99.70;;;;;;5055288;28;20036;-61
2021/04/02 00:07:32;;;;;;;11.97;7.20;;;8.70;99.90;;;;;;5040796;28;20029;-61
2021/04/02 00:10:00;;;;;;;15.10;8.10;;;8.70;99.80;;;;;;5040069;28;20063;-61
2021/04/02 00:12:28;;;;;;;13.63;7.00;;;8.70;99.90;;;;;;5040500;28;20382;-61
2021/04/02 00:14:54;;;;;;;12.47;7.20;;;8.80;99.80;;;;;;5040779;28;20037;-61
2021/04/02 00:17:20;;;;;;;12.40;8.43;;;8.80;99.70;;;;;;5040448;28;20039;-61
2021/04/02 00:19:46;;;;;;;16.57;9.63;;;8.80;99.80;;;;;;5040398;28;20056;-61
2021/04/02 00:22:11;;;;;;;14.07;8.80;;;8.90;99.80;;;;;;5039926;28;20107;-61
2021/04/02 00:24:39;;;;;;;16.90;9.00;;;8.90;99.50;;;;;;5047541;28;20124;-61
2021/04/02 00:27:06;;;;;;;17.07;9.60;;;8.90;99.50;;;;;;5040413;28;20033;-61
2021/04/02 00:29:36;;;;;;;15.30;8.53;;;9.00;99.20;;;;;;5040026;28;20116;-61
2021/04/02 00:32:02;;;;;;;22.90;12.80;;;9.00;99.30;;;;;;5040093;28;20043;-61
2021/04/02 00:34:28;;;;;;;15.17;9.50;;;9.10;99.50;;;;;;5036375;28;20381;-60
2021/04/02 00:36:53;;;;;;;24.40;9.07;;;9.20;99.10;;;;;;5039740;28;20039;-61
2021/04/02 00:39:19;;;;;;;12.83;8.40;;;9.20;98.70;;;;;;5039699;28;20037;-61
2021/04/02 00:41:45;;;;;;;19.37;11.37;;;9.20;98.50;;;;;;5039593;28;20029;-61
2021/04/02 00:44:12;;;;;;;13.63;8.30;;;9.20;98.70;;;;;;5039434;28;20032;-60
2021/04/02 00:46:38;;;;;;;16.43;8.83;;;9.10;98.70;;;;;;5039965;28;20032;-61
2021/04/02 00:49:04;;;;;;;14.03;8.63;;;9.00;98.80;;;;;;5039949;28;20057;-61
2021/04/02 00:51:32;;;;;;;12.63;8.27;;;9.10;99.20;;;;;;5040211;28;20026;-61
2021/04/02 00:53:58;;;;;;;14.40;10.23;;;9.10;99.10;;;;;;5040259;28;20424;-61
2021/04/02 00:56:24;;;;;;;10.63;8.03;;;9.10;99.30;;;;;;5036742;28;20028;-60
2021/04/02 00:58:50;;;;;;;12.97;8.10;;;9.10;99.10;;;;;;5039705;28;20028;-61
2021/04/02 01:01:19;;;;;;;11.77;6.40;;;9.10;99.50;;;;;;5039923;28;20489;-61
2021/04/02 01:03:47;;;;;;;11.70;8.13;;;9.00;99.80;;;;;;5039538;28;20035;-61
2021/04/02 01:06:17;;;;;;;17.83;8.17;;;9.00;99.50;;;;;;5042593;28;20036;-61
2021/04/02 01:08:47;;;;;;;15.77;8.77;;;9.00;99.60;;;;;;5040947;28;20033;-61
2021/04/02 01:11:17;;;;;;;15.87;9.23;;;9.00;99.40;;;;;;5039728;28;20036;-61
2021/04/02 01:13:48;;;;;;;12.40;8.00;;;9.00;99.80;;;;;;5042129;28;20102;-61
2021/04/02 01:16:20;;;;;;;11.83;7.57;;;9.00;99.60;;;;;;5042115;28;20100;-61
2021/04/02 01:18:57;;;;;;;14.52;8.35;;;9.00;99.30;;;;;;5042220;28;20029;-61
2021/04/02 01:21:27;;;;;;;11.90;7.90;;;8.90;99.80;;;;;;5042233;28;20033;-61
2021/04/02 01:24:12;;;;;;;12.90;7.67;;;8.80;99.80;;;;;;5042594;28;20017;-61
2021/04/02 01:26:47;;;;;;;12.87;7.97;;;8.80;99.90;;;;;;5057851;28;20122;-61
2021/04/02 01:29:35;;;;;;;15.30;8.00;;;8.80;99.90;;;;;;5042715;28;20108;-61
2021/04/02 01:32:08;;;;;;;14.23;7.80;;;8.70;99.90;;;;;;5042239;28;20083;-61
2021/04/02 01:34:36;;;;;;;12.27;7.50;;;8.70;99.90;;;;;;5042189;28;20029;-61
2021/04/02 01:37:08;;;;;;;20.67;9.50;;;8.60;99.90;;;;;;5041659;28;20086;-61
2021/04/02 01:39:42;;;;;;;13.80;7.75;;;8.50;99.90;;;;;;5042034;28;20051;-61
2021/04/02 01:42:14;;;;;;;9.73;6.83;;;8.50;99.90;;;;;;5041988;28;20032;-61
2021/04/02 01:44:43;;;;;;;13.27;7.90;;;8.40;99.90;;;;;;5042418;28;20025;-61
2021/04/02 01:47:12;;;;;;;16.47;9.43;;;8.40;99.90;;;;;;5042454;28;22060;-61
2021/04/02 01:49:41;;;;;;;13.87;8.30;;;8.30;99.90;;;;;;5041959;28;20025;-60
2021/04/02 01:52:09;;;;;;;20.10;10.03;;;8.30;99.90;;;;;;5041682;28;20042;-60
2021/04/02 01:54:35;;;;;;;12.20;7.83;;;8.40;99.90;;;;;;5042313;28;20037;-61
2021/04/02 01:57:04;;;;;;;14.70;8.70;;;8.40;99.90;;;;;;5041399;28;20527;-60
2021/04/02 01:59:30;;;;;;;13.27;9.23;;;8.30;99.90;;;;;;5034709;28;20068;-60
2021/04/02 02:02:03;;;;;;;18.10;8.37;;;8.30;99.90;;;;;;5040436;28;20056;-60
2021/04/02 02:04:31;;;;;;;16.90;8.10;;;8.30;99.90;;;;;;5040669;28;20029;-60
2021/04/02 02:06:59;;;;;;;15.87;8.90;;;8.30;99.90;;;;;;5042303;28;20021;-61
2021/04/02 02:09:33;;;;;;;16.30;9.43;;;8.30;99.90;;;;;;5057358;28;20037;-61
2021/04/02 02:12:02;;;;;;;14.73;8.57;;;8.30;99.90;;;;;;5041019;28;20028;-60
2021/04/02 02:14:31;;;;;;;14.93;8.47;;;8.30;99.90;;;;;;5041621;28;20033;-60
2021/04/02 02:17:03;;;;;;;15.87;9.20;;;8.30;99.90;;;;;;5041069;28;20036;-60
2021/04/02 02:19:35;;;;;;;16.57;8.90;;;8.20;99.90;;;;;;5039878;28;20541;-60
2021/04/02 02:22:04;;;;;;;12.93;8.83;;;8.20;99.90;;;;;;5041633;28;20961;-60
2021/04/02 02:24:30;;;;;;;15.50;9.37;;;8.10;99.90;;;;;;5041487;28;20086;-60
2021/04/02 02:26:58;;;;;;;15.97;10.07;;;8.10;99.90;;;;;;5042021;28;20037;-60
2021/04/02 02:29:25;;;;;;;16.23;9.30;;;8.10;99.90;;;;;;5045393;28;20036;-60
2021/04/02 02:31:51;;;;;;;14.87;9.97;;;8.10;99.90;;;;;;5045784;28;20033;-60
2021/04/02 02:34:19;;;;;;;15.27;10.00;;;8.10;99.90;;;;;;5042108;28;20037;-60
2021/04/02 02:36:45;;;;;;;15.30;9.63;;;8.10;99.90;;;;;;5044876;28;20518;-60
2021/04/02 02:39:16;;;;;;;19.00;10.10;;;8.10;99.90;;;;;;5034275;28;20093;-60
2021/04/02 02:41:47;;;;;;;16.53;10.63;;;8.10;99.90;;;;;;5044942;28;20123;-60
2021/04/02 02:44:16;;;;;;;15.57;11.00;;;8.10;99.90;;;;;;5035206;28;20049;-60
2021/04/02 02:46:41;;;;;;;20.03;10.97;;;8.10;99.90;;;;;;5041583;28;20119;-60
2021/04/02 02:49:17;;;;;;;25.07;12.07;;;8.10;99.90;;;;;;5044852;28;21939;-60
2021/04/02 02:51:44;;;;;;;17.23;11.20;;;8.10;99.90;;;;;;5045678;28;20518;-60
2021/04/02 02:54:19;;;;;;;17.53;10.37;;;8.10;99.90;;;;;;5044907;28;20079;-60
2021/04/02 02:56:48;;;;;;;18.37;11.47;;;8.10;99.90;;;;;;5044636;28;20469;-60
2021/04/02 02:59:19;;;;;;;18.73;11.33;;;8.10;99.90;;;;;;5043802;28;20477;-59
2021/04/02 03:01:46;;;;;;;20.53;10.83;;;8.20;99.90;;;;;;5044575;28;20065;-60
2021/04/02 03:04:16;;;;;;;19.20;10.67;;;8.10;99.90;;;;;;5060352;28;20055;-60
2021/04/02 03:06:42;;;;;;;16.63;10.67;;;8.10;99.90;;;;;;5044997;28;20029;-60
2021/04/02 03:09:14;;;;;;;19.93;10.33;;;8.10;99.90;;;;;;5044635;28;20068;-60
2021/04/02 03:11:42;;;;;;;14.57;9.10;;;8.10;99.90;;;;;;5059710;28;20883;-60
2021/04/02 03:14:10;;;;;;;17.60;10.47;;;8.10;99.90;;;;;;5044455;28;20021;-60
2021/04/02 03:16:42;;;;;;;19.00;10.47;;;8.10;99.90;;;;;;5044175;28;20102;-60
2021/04/02 03:19:13;;;;;;;17.20;10.32;;;8.10;99.90;;;;;;5041061;28;20032;-60
2021/04/02 03:21:39;;;;;;;16.27;9.50;;;8.10;99.90;;;;;;5050824;28;20052;-60
2021/04/02 03:24:06;;;;;;;14.40;9.90;;;8.10;99.90;;;;;;5044149;28;20028;-60
2021/04/02 03:26:33;;;;;;;16.47;10.57;;;8.20;99.90;;;;;;5043274;28;20661;-60
2021/04/02 03:29:02;;;;;;;15.23;10.13;;;8.20;99.90;;;;;;5043240;28;20025;-60
2021/04/02 03:31:29;;;;;;;18.93;11.03;;;8.10;99.90;;;;;;5044166;28;20037;-60
2021/04/02 03:33:57;;;;;;;19.17;9.53;;;8.20;99.90;;;;;;5043736;28;20572;-60
2021/04/02 03:36:27;;;;;;;19.60;10.63;;;8.10;99.90;;;;;;5034628;28;20047;-59
2021/04/02 03:38:54;;;;;;;16.50;9.27;;;8.00;99.90;;;;;;5042692;28;20116;-60
2021/04/02 03:41:30;;;;;;;14.63;9.93;;;8.00;99.90;;;;;;5043452;28;20111;-60
2021/04/02 03:43:57;;;;;;;13.17;9.80;;;7.90;99.90;;;;;;5043961;28;20059;-60
2021/04/02 03:46:26;;;;;;;15.00;10.30;;;7.90;99.90;;;;;;5042313;28;20032;-60
2021/04/02 03:48:57;;;;;;;17.90;11.10;;;7.90;99.90;;;;;;5044213;28;20044;-60
2021/04/02 03:51:25;;;;;;;13.40;10.03;;;7.80;99.90;;;;;;5043920;28;20029;-60
2021/04/02 03:53:56;;;;;;;18.30;10.87;;;7.80;99.90;;;;;;5043649;28;20068;-60
2021/04/02 03:56:29;;;;;;;19.70;10.77;;;7.80;99.90;;;;;;5043319;28;20033;-60
2021/04/02 03:58:55;;;;;;;;;;;7.70;99.90;;;;;;5044434;28;20035;-58
2021/04/02 04:01:23;;;;;;;18.40;10.17;;;7.70;99.90;;;;;;5043451;28;20011;-59
2021/04/02 04:03:51;;;;;;;17.73;11.23;;;7.70;99.90;;;;;;5050202;28;20033;-60
2021/04/02 04:06:20;;;;;;;16.80;10.63;;;7.70;99.90;;;;;;5042005;28;20037;-59
2021/04/02 04:08:50;;;;;;;18.47;11.33;;;7.60;99.90;;;;;;5042116;28;20021;-60
2021/04/02 04:11:17;;;;;;;16.03;11.57;;;7.60;99.90;;;;;;5042740;28;20477;-60
2021/04/02 04:13:49;;;;;;;22.30;11.50;;;7.60;99.90;;;;;;5043189;28;20040;-60
2021/04/02 04:16:21;;;;;;;17.48;10.98;;;7.60;99.90;;;;;;5042918;28;20071;-60
2021/04/02 04:18:51;;;;;;;18.87;11.57;;;7.50;99.90;;;;;;5042857;28;20047;-60
2021/04/02 04:21:21;;;;;;;22.13;10.87;;;7.50;99.90;;;;;;5042674;28;20133;-60
2021/04/02 04:23:48;;;;;;;18.40;11.37;;;7.50;99.90;;;;;;5042894;28;20032;-60
2021/04/02 04:26:18;;;;;;;22.37;12.50;;;7.50;99.90;;;;;;5042520;28;20040;-60
2021/04/02 04:28:51;;;;;;;20.27;12.30;;;7.50;99.90;;;;;;5042511;28;20040;-60
2021/04/02 04:31:22;;;;;;;19.73;12.50;;;7.40;99.90;;;;;;5042799;28;20041;-60
2021/04/02 04:33:48;;;;;;;20.63;11.60;;;7.40;99.90;;;;;;5043037;28;20151;-60
2021/04/02 04:36:15;;;;;;;20.53;12.27;;;7.50;99.90;;;;;;5043199;28;20071;-62
2021/04/02 04:38:42;;;;;;;19.00;12.30;;;7.40;99.90;;;;;;5040335;28;20040;-60
2021/04/02 04:41:13;;;;;;;23.10;12.73;;;7.40;99.90;;;;;;5039793;28;20678;-60
2021/04/02 04:43:43;;;;;;;18.43;13.07;;;7.30;99.90;;;;;;5036744;28;20029;-60
2021/04/02 04:46:08;;;;;;;23.07;13.13;;;7.30;99.90;;;;;;5040060;28;20086;-60
2021/04/02 04:48:36;;;;;;;18.53;12.60;;;7.30;99.90;;;;;;5036472;28;20025;-60
2021/04/02 04:51:04;;;;;;;20.47;12.53;;;7.30;99.90;;;;;;5037624;28;20245;-60
2021/04/02 04:53:35;;;;;;;19.93;12.17;;;7.30;99.90;;;;;;5040044;28;20040;-60
2021/04/02 04:56:04;;;;;;;20.67;13.00;;;7.20;99.90;;;;;;5039871;28;20036;-60
2021/04/02 04:58:36;;;;;;;24.50;13.93;;;7.20;99.90;;;;;;5039682;28;20314;-60
2021/04/02 05:01:05;;;;;;;22.60;13.10;;;7.10;99.90;;;;;;5040266;28;20041;-60
2021/04/02 05:03:32;;;;;;;22.30;12.30;;;7.00;99.90;;;;;;5039680;28;20075;-60
2021/04/02 05:05:59;;;;;;;20.23;12.70;;;6.90;99.90;;;;;;5039317;28;20021;-59
2021/04/02 05:08:55;;;;;;;23.57;13.37;;;6.80;99.90;;;;;;5039453;28;20062;-60
2021/04/02 05:11:23;;;;;;;24.43;14.37;;;6.70;99.90;;;;;;5025898;28;20037;-60
2021/04/02 05:13:51;;;;;;;26.73;13.03;;;6.70;99.90;;;;;;5047317;28;20037;-60
2021/04/02 05:16:20;;;;;;;25.97;13.07;;;6.70;99.90;;;;;;5054634;28;20366;-59
2021/04/02 05:18:48;;;;;;;19.83;13.27;;;6.70;99.90;;;;;;5039551;28;20588;-60
2021/04/02 05:21:13;;;;;;;22.13;12.67;;;6.70;99.90;;;;;;5039133;28;20370;-60
2021/04/02 05:23:39;;;;;;;21.20;12.53;;;6.70;99.90;;;;;;5039208;28;20275;-59
2021/04/02 05:26:09;;;;;;;26.37;13.20;;;6.70;99.90;;;;;;5039410;28;20532;-59
2021/04/02 05:28:37;;;;;;;26.57;14.33;;;6.70;99.90;;;;;;5039902;28;20280;-60
2021/04/02 05:31:02;;;;;;;26.13;14.53;;;6.70;99.90;;;;;;5039494;28;20461;-60
2021/04/02 05:33:28;;;;;;;24.40;13.33;;;6.80;99.90;;;;;;5039320;28;20344;-59
2021/04/02 05:35:54;;;;;;;20.13;13.03;;;6.90;99.90;;;;;;5039244;28;20036;-59
2021/04/02 05:38:22;;;;;;;31.40;13.40;;;6.90;99.90;;;;;;5047219;28;20043;-60
2021/04/02 05:40:48;;;;;;;22.17;13.40;;;6.90;99.90;;;;;;5054319;28;20025;-60
2021/04/02 05:43:46;;;;;;;22.97;11.73;;;7.00;99.90;;;;;;5039255;28;20033;-60
2021/04/02 05:46:13;;;;;;;18.87;12.73;;;7.00;99.90;;;;;;5038889;28;20032;-60
2021/04/02 05:48:44;;;;;;;18.83;12.47;;;7.00;99.90;;;;;;5038891;28;20041;-60
2021/04/02 05:51:11;;;;;;;20.83;12.33;;;7.00;99.90;;;;;;5039352;28;20032;-60
2021/04/02 05:53:43;;;;;;;19.47;12.37;;;7.10;99.90;;;;;;5038875;28;20090;-60
2021/04/02 05:56:11;;;;;;;25.23;12.97;;;7.10;99.90;;;;;;5035784;28;20059;-60
2021/04/02 05:58:40;;;;;;;18.97;10.93;;;7.10;99.90;;;;;;5039082;28;20031;-60
2021/04/02 06:01:08;;;;;;;21.90;12.37;;;7.10;99.90;;;;;;5045540;28;20099;-60
2021/04/02 06:03:34;;;;;;;23.30;12.37;;;7.10;99.90;;;;;;5043075;28;20029;-60
2021/04/02 06:06:00;;;;;;;23.60;13.33;;;7.00;99.90;;;;;;5042655;28;20662;-60
2021/04/02 06:08:27;;;;;;;18.53;12.00;;;7.00;99.90;;;;;;5032721;28;20029;-60
2021/04/02 06:10:53;;;;;;;20.53;12.10;;;7.00;99.90;;;;;;5039557;28;20120;-59
2021/04/02 06:13:22;;;;;;;20.73;12.70;;;7.00;99.90;;;;;;5057987;28;20507;-60
2021/04/02 06:15:47;;;;;;;22.83;11.83;;;7.10;99.90;;;;;;5042474;28;20025;-59
2021/04/02 06:18:16;;;;;;;20.67;13.10;;;7.20;99.90;;;;;;5042894;28;20037;-60
2021/04/02 06:20:43;;;;;;;21.83;12.83;;;7.30;99.90;;;;;;5042448;28;20123;-60
2021/04/02 06:23:24;;;;;;;18.90;12.37;;;7.30;99.90;;;;;;5042432;28;20033;-60
2021/04/02 06:25:50;;;;;;;22.97;12.57;;;7.30;99.90;;;;;;5042935;28;20029;-60
2021/04/02 06:28:42;;;;;;;20.47;12.37;;;7.30;99.90;;;;;;5042657;28;20029;-60
2021/04/02 06:31:11;;;;;;;25.40;12.35;;;7.40;99.90;;;;;;5038961;28;20087;-60
2021/04/02 06:33:44;;;;;;;21.33;12.60;;;7.40;99.90;;;;;;5049325;28;20051;-60
2021/04/02 06:36:17;;;;;;;21.83;12.73;;;7.40;99.90;;;;;;5042756;28;20035;-60
2021/04/02 06:38:47;;;;;;;19.80;12.00;;;7.40;99.90;;;;;;5032398;28;20110;-61
2021/04/02 06:41:16;;;;;;;20.03;12.70;;;7.40;99.90;;;;;;5042356;28;20033;-60
2021/04/02 06:43:44;;;;;;;21.87;13.03;;;7.50;99.90;;;;;;5042745;28;20036;-60
2021/04/02 06:46:26;;;;;;;21.83;13.60;;;7.50;99.90;;;;;;5041820;28;20178;-60
2021/04/02 06:48:54;;;;;;;33.60;14.77;;;7.60;99.90;;;;;;5042274;28;20120;-60
2021/04/02 06:51:21;;;;;;;22.13;14.00;;;7.60;99.90;;;;;;5058094;28;20024;-60
2021/04/02 06:53:54;;;;;;;22.97;13.73;;;7.70;99.90;;;;;;5049728;28;20033;-60
2021/04/02 06:56:21;;;;;;;25.52;15.52;;;7.70;99.90;;;;;;5042002;28;20021;-60
2021/04/02 06:58:49;;;;;;;34.90;16.20;;;7.60;99.90;;;;;;5042126;28;20024;-60
2021/04/02 07:01:16;;;;;;;31.13;16.30;;;7.70;99.90;;;;;;5040467;28;20056;-60
2021/04/02 07:03:43;;;;;;;29.23;16.83;;;7.80;99.90;;;;;;5032391;28;20110;-60
2021/04/02 07:06:11;;;;;;;34.83;17.03;;;7.80;99.90;;;;;;5041819;28;20040;-60
2021/04/02 07:08:41;;;;;;;33.63;17.40;;;7.80;99.90;;;;;;5042022;28;20032;-60
2021/04/02 07:11:07;;;;;;;28.73;17.30;;;7.80;99.90;;;;;;5041625;28;20044;-60
2021/04/02 07:13:51;;;;;;;32.13;17.57;;;7.90;99.90;;;;;;5040395;28;20424;-60
2021/04/02 07:16:18;;;;;;;36.33;17.57;;;8.00;99.90;;;;;;5031248;28;20025;-60
2021/04/02 07:18:48;;;;;;;34.73;18.50;;;8.10;99.90;;;;;;5041641;28;20095;-60
2021/04/02 07:21:19;;;;;;;34.37;17.80;;;8.20;99.90;;;;;;5037027;28;20413;-60
2021/04/02 07:23:47;;;;;;;35.53;20.00;;;8.20;99.90;;;;;;5041033;28;20025;-60
2021/04/02 07:26:18;;;;;;;34.27;18.77;;;8.20;99.90;;;;;;5041419;28;20159;-60
2021/04/02 07:28:45;;;;;;;34.57;18.80;;;8.20;99.90;;;;;;5041227;28;20032;-60
2021/04/02 07:31:17;;;;;;;30.20;17.97;;;8.30;99.90;;;;;;5041294;28;20047;-61
2021/04/02 07:33:47;;;;;;;36.35;19.45;;;8.40;99.90;;;;;;5040815;28;20143;-60
2021/04/02 07:36:18;;;;;;;33.33;18.80;;;8.50;99.90;;;;;;5056238;28;20073;-60
2021/04/02 07:38:54;;;;;;;30.50;18.77;;;8.50;99.90;;;;;;5040695;28;20033;-60
2021/04/02 07:41:22;;;;;;;36.20;18.97;;;8.50;99.90;;;;;;5040527;28;20544;-60
2021/04/02 07:43:54;;;;;;;30.97;17.70;;;8.60;99.90;;;;;;5040178;28;20029;-61
2021/04/02 07:46:25;;;;;;;38.00;19.90;;;8.70;99.90;;;;;;5041221;28;20064;-60
2021/04/02 07:49:00;;;;;;;38.93;19.60;;;8.70;99.90;;;;;;5040201;28;20086;-60
2021/04/02 07:51:45;;;;;;;37.23;18.77;;;8.50;99.90;;;;;;5040661;28;20036;-60
2021/04/02 07:54:20;;;;;;;34.77;18.80;;;8.60;99.90;;;;;;5056402;28;20397;-60
2021/04/02 07:56:50;;;;;;;35.13;18.60;;;8.60;99.90;;;;;;5041452;28;20040;-60
2021/04/02 07:59:18;;;;;;;32.60;18.10;;;8.50;99.90;;;;;;5040142;28;20057;-60
2021/04/02 08:02:03;;;;;;;31.80;19.13;;;8.40;99.90;;;;;;5040227;28;20083;-60
2021/04/02 08:04:44;;;;;;;37.90;19.40;;;8.40;99.90;;;;;;5039849;28;20029;-60
2021/04/02 08:07:34;;;;;;;30.47;16.17;;;8.40;99.90;;;;;;5039987;28;20104;-60
2021/04/02 08:10:01;;;;;;;27.10;16.57;;;8.60;99.90;;;;;;5035528;28;20041;-60
2021/04/02 08:12:30;;;;;;;29.90;16.67;;;8.60;99.90;;;;;;5040487;28;20036;-60
2021/04/02 08:15:04;;;;;;;27.03;15.20;;;8.80;99.90;;;;;;5039794;28;20041;-60
2021/04/02 08:17:30;;;;;;;27.03;13.97;;;9.00;99.90;;;;;;5039955;28;20116;-60
2021/04/02 08:20:16;;;;;;;21.23;13.67;;;9.20;99.80;;;;;;5039548;28;20029;-60
2021/04/02 08:22:42;;;;;;;23.50;13.10;;;9.20;99.80;;;;;;5039486;28;20098;-60
2021/04/02 08:25:13;;;;;;;19.17;10.67;;;9.20;99.50;;;;;;5040812;28;20108;-60
2021/04/02 08:27:40;;;;;;;18.00;10.77;;;9.10;99.10;;;;;;5055212;28;20025;-60
2021/04/02 08:30:12;;;;;;;21.13;10.67;;;9.00;99.10;;;;;;5039373;28;21698;-60
2021/04/02 08:32:41;;;;;;;24.70;11.30;;;9.00;99.50;;;;;;5039327;28;20047;-60
2021/04/02 08:35:09;;;;;;;20.87;12.17;;;9.00;99.90;;;;;;5039263;28;20048;-60
2021/04/02 08:37:34;;;;;;;20.83;12.30;;;8.90;99.90;;;;;;5038832;28;20028;-60
2021/04/02 08:40:05;;;;;;;19.73;11.67;;;8.70;99.90;;;;;;5038143;28;20067;-60
2021/04/02 08:42:34;;;;;;;18.30;10.20;;;8.60;99.90;;;;;;5038501;28;20457;-60
2021/04/02 08:45:06;;;;;;;17.50;9.90;;;8.60;99.90;;;;;;5038851;28;20515;-59
2021/04/02 08:47:37;;;;;;;15.68;9.57;;;8.60;99.90;;;;;;5040251;28;20036;-60
2021/04/02 08:50:05;;;;;;;14.93;8.57;;;8.70;99.90;;;;;;5035511;28;20036;-60
2021/04/02 08:52:31;;;;;;;16.57;9.07;;;8.80;99.90;;;;;;5038962;28;20040;-60
2021/04/02 08:54:58;;;;;;;13.93;8.50;;;9.00;99.90;;;;;;5039268;28;20037;-60
2021/04/02 08:57:26;;;;;;;14.80;8.83;;;9.20;99.30;;;;;;5054227;28;20033;-59
2021/04/02 08:59:53;;;;;;;12.10;7.77;;;9.30;98.80;;;;;;5039191;28;20110;-60
2021/04/02 09:02:28;;;;;;;19.03;8.77;;;9.40;98.60;;;;;;5034528;28;20040;-60
2021/04/02 09:04:54;;;;;;;13.93;8.57;;;9.40;98.60;;;;;;5055104;28;20099;-60
2021/04/02 09:07:20;;;;;;;14.70;7.70;;;9.40;98.30;;;;;;5039684;28;20033;-59
2021/04/02 09:09:47;;;;;;;17.53;8.40;;;9.20;98.30;;;;;;5039254;28;20107;-61
2021/04/02 09:12:18;;;;;;;15.30;8.67;;;9.20;98.70;;;;;;5039217;28;20098;-59
2021/04/02 09:14:55;;;;;;;14.57;8.37;;;9.20;98.60;;;;;;5039165;28;20242;-60
2021/04/02 09:17:25;;;;;;;13.27;7.97;;;9.30;98.60;;;;;;5039356;28;20032;-60
2021/04/02 09:19:53;;;;;;;13.00;8.67;;;9.40;98.50;;;;;;5039924;28;20090;-60
2021/04/02 09:22:20;;;;;;;15.10;9.03;;;9.40;98.90;;;;;;5028956;28;20028;-60
2021/04/02 09:24:46;;;;;;;14.77;9.07;;;9.50;98.40;;;;;;5038264;28;20041;-60
2021/04/02 09:27:20;;;;;;;11.83;8.20;;;9.50;97.70;;;;;;5047183;28;20037;-60
2021/04/02 09:29:56;;;;;;;12.53;7.57;;;9.40;97.30;;;;;;5039175;28;20405;-60
2021/04/02 09:32:26;;;;;;;14.77;8.10;;;9.40;97.40;;;;;;5039087;28;20064;-60
2021/04/02 09:34:52;;;;;;;13.77;7.47;;;9.80;96.60;;;;;;5039101;28;20037;-60
2021/04/02 09:37:20;;;;;;;11.10;7.27;;;10.20;95.40;;;;;;5035765;28;20060;-60
2021/04/02 09:39:46;;;;;;;15.30;7.67;;;10.40;94.70;;;;;;5038430;28;20051;-60
2021/04/02 09:42:16;;;;;;;12.43;6.77;;;10.50;93.70;;;;;;5037434;28;20032;-60
2021/04/02 09:44:46;;;;;;;11.57;7.10;;;10.60;93.50;;;;;;5038371;28;20123;-60
2021/04/02 09:47:13;;;;;;;15.87;8.50;;;10.70;93.00;;;;;;5038035;28;20037;-60
2021/04/02 09:49:40;;;;;;;17.07;8.30;;;10.80;92.90;;;;;;5039686;28;20134;-60
2021/04/02 09:52:08;;;;;;;13.93;7.60;;;11.10;92.10;;;;;;5039223;28;20040;-60
2021/04/02 09:54:37;;;;;;;17.33;7.77;;;11.30;91.30;;;;;;5038574;28;20426;-60
2021/04/02 09:57:08;;;;;;;16.23;8.33;;;11.30;91.40;;;;;;5039044;28;20481;-60
2021/04/02 09:59:34;;;;;;;13.37;8.20;;;11.20;91.60;;;;;;5035452;28;20049;-60
2021/04/02 10:02:02;;;;;;;15.70;8.23;;;11.10;92.10;;;;;;5038943;28;20693;-60
2021/04/02 10:04:30;;;;;;;16.70;8.43;;;11.00;91.10;;;;;;5037719;28;20037;-59
2021/04/02 10:06:56;;;;;;;17.70;8.47;;;10.80;91.60;;;;;;5038099;28;20037;-59
2021/04/02 10:09:22;;;;;;;14.87;9.13;;;10.60;92.90;;;;;;5046229;28;20420;-59
2021/04/02 10:11:49;;;;;;;15.57;8.27;;;10.40;93.50;;;;;;5038477;28;20461;-60
2021/04/02 10:14:19;;;;;;;14.80;8.37;;;10.20;94.20;;;;;;5038175;28;20369;-59
2021/04/02 10:16:45;;;;;;;19.60;8.27;;;10.10;94.50;;;;;;5037937;28;20438;-60
2021/04/02 10:19:11;;;;;;;14.87;7.90;;;10.10;94.00;;;;;;5037964;28;20047;-60
2021/04/02 10:21:42;;;;;;;14.30;8.20;;;10.20;93.80;;;;;;5037730;28;20491;-60
2021/04/02 10:24:10;;;;;;;13.00;7.53;;;10.10;93.40;;;;;;5038264;28;20033;-60
2021/04/02 10:26:39;;;;;;;13.53;7.27;;;10.30;93.00;;;;;;5038051;28;20021;-60
2021/04/02 10:29:06;;;;;;;10.73;6.47;;;10.40;92.10;;;;;;5038602;28;20039;-60
2021/04/02 10:31:32;;;;;;;13.27;6.40;;;10.50;90.80;;;;;;5034409;28;20145;-60
2021/04/02 10:33:58;;;;;;;16.23;6.73;;;10.40;91.50;;;;;;5034822;28;20344;-60
2021/04/02 10:36:24;;;;;;;12.30;5.90;;;10.60;91.40;;;;;;5038683;28;20033;-59
2021/04/02 10:38:50;;;;;;;13.17;6.93;;;10.70;91.20;;;;;;5038886;28;20033;-59
2021/04/02 10:41:16;;;;;;;12.27;7.00;;;10.70;91.60;;;;;;5035960;28;20102;-60
2021/04/02 10:43:42;;;;;;;14.33;8.53;;;10.60;92.30;;;;;;5038492;28;20059;-60
2021/04/02 10:46:07;;;;;;;11.13;7.30;;;10.40;92.90;;;;;;5038544;28;20116;-62
2021/04/02 10:48:35;;;;;;;9.20;7.20;;;10.50;93.20;;;;;;5041691;28;20052;-60
2021/04/02 10:51:01;;;;;;;11.33;6.80;;;10.60;92.90;;;;;;5031302;28;20446;-60
2021/04/02 10:53:27;;;;;;;11.93;6.27;;;10.60;91.90;;;;;;5042050;28;20048;-60
2021/04/02 10:55:57;;;;;;;14.60;6.57;;;10.60;92.10;;;;;;5041580;28;20037;-60
2021/04/02 10:58:22;;;;;;;19.47;7.47;;;10.30;92.80;;;;;;5031219;28;20282;-60
2021/04/02 11:00:50;;;;;;;12.83;7.23;;;10.50;93.10;;;;;;5040743;28;20086;-60
2021/04/02 11:03:18;;;;;;;12.90;5.83;;;10.70;92.50;;;;;;5041831;28;20094;-60
2021/04/02 11:05:44;;;;;;;11.33;5.87;;;10.80;91.40;;;;;;5042243;28;20186;-60
2021/04/02 11:08:09;;;;;;;13.83;5.80;;;10.80;91.20;;;;;;5039425;28;20449;-60
2021/04/02 11:10:37;;;;;;;12.67;6.60;;;11.00;90.70;;;;;;5042330;28;20029;-60
2021/04/02 11:13:03;;;;;;;8.57;6.20;;;11.10;90.70;;;;;;5043671;28;20033;-60
2021/04/02 11:15:31;;;;;;;11.73;6.57;;;11.40;88.50;;;;;;5046630;28;20111;-60
2021/04/02 11:17:57;;;;;;;10.87;5.93;;;11.60;87.30;;;;;;5043907;28;20044;-61
2021/04/02 11:20:28;;;;;;;10.13;5.40;;;11.70;87.40;;;;;;5043924;28;20094;-61
2021/04/02 11:22:57;;;;;;;10.53;5.47;;;11.80;84.00;;;;;;5043426;28;20037;-61
2021/04/02 11:25:24;;;;;;;7.43;4.80;;;11.80;83.90;;;;;;5042900;28;20063;-60
2021/04/02 11:27:50;;;;;;;9.00;5.97;;;11.70;83.60;;;;;;5039687;28;20472;-61
2021/04/02 11:30:17;;;;;;;9.07;5.60;;;11.50;84.70;;;;;;5043057;28;20037;-61
2021/04/02 11:32:46;;;;;;;10.13;5.23;;;11.50;86.70;;;;;;5041506;28;20049;-61
2021/04/02 11:35:15;;;;;;;11.37;5.80;;;11.40;84.80;;;;;;5041861;28;20040;-61
2021/04/02 11:37:41;;;;;;;10.10;4.73;;;11.50;83.90;;;;;;5043031;28;20028;-61
2021/04/02 11:40:10;;;;;;;9.50;5.47;;;11.60;82.10;;;;;;5043799;28;20033;-61
2021/04/02 11:42:36;;;;;;;11.63;5.30;;;11.70;81.20;;;;;;5042641;28;20119;-60
2021/04/02 11:45:06;;;;;;;9.10;5.37;;;11.60;81.50;;;;;;5051265;28;20052;-61
2021/04/02 11:47:34;;;;;;;9.13;4.77;;;11.30;82.60;;;;;;5033099;28;20040;-60
2021/04/02 11:50:06;;;;;;;9.30;4.63;;;11.20;83.30;;;;;;5058145;28;20033;-60
2021/04/02 11:52:32;;;;;;;9.25;4.95;;;11.00;84.70;;;;;;5043778;28;20063;-60
2021/04/02 11:55:00;;;;;;;13.73;5.27;;;11.00;84.20;;;;;;5041030;28;20435;-60
2021/04/02 11:57:25;;;;;;;12.93;5.73;;;11.20;83.00;;;;;;5043509;28;20063;-60
2021/04/02 11:59:53;;;;;;;11.03;6.43;;;11.50;81.80;;;;;;5039056;28;20160;-61
2021/04/02 12:02:19;;;;;;;17.50;8.17;;;11.70;80.60;;;;;;5037713;28;20032;-61
2021/04/02 12:04:45;;;;;;;15.53;8.73;;;11.70;79.70;;;;;;5041486;28;20102;-61
2021/04/02 12:07:14;;;;;;;16.60;10.23;;;11.70;81.60;;;;;;5031403;28;20453;-60
2021/04/02 12:09:39;;;;;;;21.47;12.60;;;11.50;81.90;;;;;;5039514;28;20040;-60
2021/04/02 12:12:06;;;;;;;30.63;19.30;;;11.10;87.30;;;;;;5040587;28;20048;-61
2021/04/02 12:14:32;;;;;;;30.10;18.60;;;10.90;90.00;;;;;;5036096;28;20037;-60
2021/04/02 12:16:58;;;;;;;32.80;21.67;;;10.60;91.00;;;;;;5040571;28;21006;-60
2021/04/02 12:19:24;;;;;;;38.97;25.00;;;10.50;91.80;;;;;;5040559;28;20033;-60
2021/04/02 12:21:49;;;;;;;36.00;24.00;;;10.30;92.20;;;;;;5040876;28;20044;-59
2021/04/02 12:24:15;;;;;;;41.87;27.20;;;10.10;92.70;;;;;;5039812;28;20032;-60
2021/04/02 12:26:41;;;;;;;51.33;30.23;;;10.00;93.60;;;;;;5040454;28;20132;-60
2021/04/02 12:29:06;;;;;;;61.23;34.97;;;9.90;94.20;;;;;;5039900;28;20029;-60
2021/04/02 12:31:32;;;;;;;56.20;37.03;;;9.80;95.00;;;;;;5039718;28;20086;-60
2021/04/02 12:33:58;;;;;;;57.13;36.87;;;9.70;95.50;;;;;;5040366;28;20091;-60
2021/04/02 12:36:24;;;;;;;65.97;39.13;;;9.70;95.60;;;;;;5030768;28;20495;-60
2021/04/02 12:38:49;;;;;;;55.97;34.90;;;9.60;96.00;;;;;;5039908;28;20072;-60
2021/04/02 12:41:20;;;;;;;52.43;33.83;;;9.60;95.60;;;;;;5036820;28;20057;-60
2021/04/02 12:43:48;;;;;;;60.40;35.03;;;9.60;96.30;;;;;;5039571;28;20456;-60
2021/04/02 12:46:14;;;;;;;55.30;33.70;;;9.50;96.10;;;;;;5040086;28;20037;-59
2021/04/02 12:48:42;;;;;;;56.33;35.20;;;9.40;96.40;;;;;;5038876;28;20094;-60